createdAt,value
2022-10-03T00:01:58.492Z,65.40
2022-10-03T00:04:31.423Z,65.54
2022-10-03T00:07:17.980Z,65.77
2022-10-03T00:10:06.043Z,65.65
2022-10-03T00:12:47.201Z,66.18
2022-10-03T00:15:26.128Z,65.98
2022-10-03T00:18:12.208Z,65.90
2022-10-03T00:21:01.654Z,66.04
2022-10-03T00:23:41.404Z,65.92
2022-10-03T00:26:49.293Z,65.94
2022-10-03T00:29:24.243Z,65.98
2022-10-03T00:32:06.273Z,66.04
2022-10-03T00:34:46.690Z,65.92
2022-10-03T00:37:28.338Z,65.88
2022-10-03T00:40:11.829Z,65.79
2022-10-03T00:43:00.040Z,66.14
2022-10-03T00:45:57.533Z,66.08
2022-10-03T00:49:04.302Z,65.85
2022-10-03T00:51:56.325Z,65.74
2022-10-03T00:54:52.968Z,65.71
2022-10-03T00:57:22.304Z,65.67
2022-10-03T01:00:14.515Z,65.88
2022-10-03T01:03:16.539Z,65.92
2022-10-03T01:06:15.005Z,65.78
2022-10-03T01:08:59.248Z,65.65
2022-10-03T01:11:44.998Z,65.95
2022-10-03T01:14:38.926Z,66.02
2022-10-03T01:17:31.765Z,65.93
2022-10-03T01:20:23.343Z,66.12
2022-10-03T01:23:01.934Z,66.02
2022-10-03T01:25:50.279Z,66.19
2022-10-03T01:28:41.692Z,66.19
2022-10-03T01:31:13.631Z,65.96
2022-10-03T01:33:46.480Z,65.95
2022-10-03T01:36:32.746Z,66.09
2022-10-03T01:39:02.001Z,66.02
2022-10-03T01:41:53.608Z,66.10
2022-10-03T01:44:28.141Z,66.17
2022-10-03T01:47:17.013Z,66.11
2022-10-03T01:49:53.471Z,66.05
2022-10-03T01:52:30.042Z,66.07
2022-10-03T01:55:02.619Z,66.08
2022-10-03T01:57:41.878Z,66.34
2022-10-03T02:00:19.364Z,66.32
2022-10-03T02:03:21.550Z,66.14
2022-10-03T02:05:57.683Z,66.18
2022-10-03T02:08:33.197Z,66.32
2022-10-03T02:11:04.363Z,66.39
2022-10-03T02:13:46.367Z,66.26
2022-10-03T02:16:39.365Z,66.39
2022-10-03T02:19:20.186Z,66.53
2022-10-03T02:21:50.931Z,66.56
2022-10-03T02:24:17.526Z,66.35
2022-10-03T02:27:07.436Z,66.54
2022-10-03T02:30:00.695Z,66.48
2022-10-03T02:32:58.353Z,66.58
2022-10-03T02:35:51.963Z,66.31
2022-10-03T02:38:49.066Z,66.62
2022-10-03T02:41:52.757Z,66.53
2022-10-03T02:44:56.219Z,66.31
2022-10-03T02:47:31.458Z,66.50
2022-10-03T02:50:03.804Z,66.54
2022-10-03T02:53:13.632Z,66.52
2022-10-03T02:55:58.798Z,66.45
2022-10-03T02:59:02.198Z,66.59
2022-10-03T03:02:02.351Z,66.98
2022-10-03T03:04:47.078Z,66.86
2022-10-03T03:07:51.067Z,66.91
2022-10-03T03:10:34.483Z,66.65
2022-10-03T03:13:26.119Z,66.87
2022-10-03T03:16:10.753Z,66.80
2022-10-03T03:18:42.115Z,67.21
2022-10-03T03:21:08.357Z,66.85
2022-10-03T03:23:41.478Z,66.86
2022-10-03T03:26:35.601Z,66.70
2022-10-03T03:29:29.247Z,66.75
2022-10-03T03:32:16.739Z,66.72
2022-10-03T03:35:10.642Z,67.00
2022-10-03T03:38:20.959Z,67.14
2022-10-03T03:41:13.400Z,67.04
2022-10-03T03:44:03.248Z,67.39
2022-10-03T03:46:43.878Z,67.27
2022-10-03T03:49:35.138Z,67.42
2022-10-03T03:52:40.856Z,67.18
2022-10-03T03:55:27.571Z,67.55
2022-10-03T03:58:02.837Z,67.48
2022-10-03T04:01:05.738Z,67.45
2022-10-03T04:03:48.950Z,67.25
2022-10-03T04:06:36.280Z,67.57
2022-10-03T04:09:25.442Z,67.90
2022-10-03T04:11:59.646Z,68.09
2022-10-03T04:14:46.425Z,68.01
2022-10-03T04:17:54.297Z,68.37
2022-10-03T04:20:46.566Z,67.97
2022-10-03T04:23:36.501Z,68.19
2022-10-03T04:26:21.659Z,68.70
2022-10-03T04:29:17.015Z,68.63
2022-10-03T04:31:58.536Z,68.95
2022-10-03T04:34:32.916Z,68.94
2022-10-03T04:37:20.390Z,69.11
2022-10-03T04:40:17.392Z,69.01
2022-10-03T04:42:55.926Z,69.64
2022-10-03T04:45:40.606Z,69.51
2022-10-03T04:48:18.928Z,69.57
2022-10-03T04:50:57.277Z,69.74
2022-10-03T04:53:46.044Z,69.73
2022-10-03T04:56:32.510Z,69.82
2022-10-03T04:59:28.607Z,69.73
2022-10-03T05:02:15.391Z,69.96
2022-10-03T05:05:15.781Z,70.17
2022-10-03T05:07:51.238Z,70.21
2022-10-03T05:10:31.291Z,70.07
2022-10-03T05:13:11.559Z,69.90
2022-10-03T05:15:55.233Z,70.38
2022-10-03T05:18:41.856Z,70.24
2022-10-03T05:21:20.422Z,70.27
2022-10-03T05:24:03.195Z,70.32
2022-10-03T05:26:59.171Z,70.29
2022-10-03T05:29:40.541Z,70.40
2022-10-03T05:32:44.800Z,70.59
2022-10-03T05:35:31.774Z,70.11
2022-10-03T05:38:13.226Z,70.63
2022-10-03T05:40:44.307Z,70.95
2022-10-03T05:43:28.072Z,70.69
2022-10-03T05:46:12.496Z,70.86
2022-10-03T05:48:50.171Z,70.94
2022-10-03T05:51:37.161Z,70.90
2022-10-03T05:54:21.882Z,71.07
2022-10-03T05:57:26.921Z,70.96
2022-10-03T06:00:07.351Z,70.90
2022-10-03T06:03:10.763Z,70.73
2022-10-03T06:05:45.994Z,71.21
2022-10-03T06:08:49.362Z,71.06
2022-10-03T06:11:24.719Z,71.36
2022-10-03T06:13:54.225Z,71.44
2022-10-03T06:16:33.181Z,71.41
2022-10-03T06:19:32.292Z,71.40
2022-10-03T06:21:58.567Z,71.53
2022-10-03T06:24:50.004Z,71.47
2022-10-03T06:28:02.405Z,71.09
2022-10-03T06:31:07.314Z,71.17
2022-10-03T06:33:56.013Z,70.96
2022-10-03T06:36:42.772Z,71.04
2022-10-03T06:39:51.212Z,71.24
2022-10-03T06:42:52.521Z,71.25
2022-10-03T06:45:31.011Z,71.47
2022-10-03T06:48:22.030Z,71.41
2022-10-03T06:51:30.616Z,71.45
2022-10-03T06:54:35.322Z,71.30
2022-10-03T06:57:19.026Z,71.37
2022-10-03T07:00:09.822Z,71.32
2022-10-03T07:03:10.536Z,71.37
2022-10-03T07:06:18.230Z,71.49
2022-10-03T07:09:01.769Z,71.41
2022-10-03T07:11:29.257Z,71.37
2022-10-03T07:14:09.741Z,71.22
2022-10-03T07:17:00.262Z,71.01
2022-10-03T07:19:57.223Z,70.79
2022-10-03T07:22:35.774Z,70.56
2022-10-03T07:25:34.575Z,70.58
2022-10-03T07:28:23.966Z,70.46
2022-10-03T07:31:05.724Z,70.65
2022-10-03T07:33:47.421Z,70.86
2022-10-03T07:36:41.694Z,71.00
2022-10-03T07:39:45.527Z,70.66
2022-10-03T07:42:21.201Z,70.61
2022-10-03T07:45:00.611Z,70.69
2022-10-03T07:47:42.120Z,70.87
2022-10-03T07:50:40.369Z,70.89
2022-10-03T07:53:44.417Z,70.74
2022-10-03T07:56:32.428Z,70.67
2022-10-03T07:59:43.473Z,70.44
2022-10-03T08:02:32.328Z,70.26
2022-10-03T08:05:33.713Z,70.07
2022-10-03T08:08:21.927Z,69.85
2022-10-03T08:11:07.219Z,69.58
2022-10-03T08:14:01.436Z,69.30
2022-10-03T08:16:46.774Z,69.49
2022-10-03T08:19:15.811Z,69.57
2022-10-03T08:21:57.213Z,69.67
2022-10-03T08:24:45.171Z,69.40
2022-10-03T08:27:33.055Z,69.49
2022-10-03T08:30:20.787Z,69.55
2022-10-03T08:33:06.617Z,69.66
2022-10-03T08:35:54.699Z,69.55
2022-10-03T08:38:33.542Z,69.56
2022-10-03T08:41:37.631Z,69.28
2022-10-03T08:44:38.449Z,69.30
2022-10-03T08:48:02.491Z,69.56
2022-10-03T08:50:50.374Z,69.36
2022-10-03T08:53:16.643Z,68.99
2022-10-03T08:56:15.072Z,69.44
2022-10-03T08:59:07.485Z,69.09
2022-10-03T09:02:19.935Z,69.00
2022-10-03T09:05:07.739Z,68.47
2022-10-03T09:08:14.281Z,67.99
2022-10-03T09:11:08.727Z,67.76
2022-10-03T09:13:56.940Z,67.84
2022-10-03T09:16:29.107Z,67.30
2022-10-03T09:19:16.734Z,67.33
2022-10-03T09:21:46.068Z,67.63
2022-10-03T09:24:50.195Z,67.39
2022-10-03T09:27:38.118Z,67.60
2022-10-03T09:30:18.550Z,67.93
2022-10-03T09:33:39.163Z,67.89
2022-10-03T09:36:20.868Z,67.81
2022-10-03T09:39:15.978Z,67.83
2022-10-03T09:42:00.261Z,67.77
2022-10-03T09:44:39.703Z,68.07
2022-10-03T09:47:39.683Z,67.73
2022-10-03T09:50:21.426Z,67.78
2022-10-03T09:53:12.539Z,67.65
2022-10-03T09:56:04.872Z,67.58
2022-10-03T09:59:05.496Z,67.51
2022-10-03T10:01:46.115Z,67.15
2022-10-03T10:04:53.599Z,67.09
2022-10-03T10:07:53.176Z,66.91
2022-10-03T10:10:28.687Z,66.20
2022-10-03T10:13:13.867Z,66.29
2022-10-03T10:15:54.248Z,66.07
2022-10-03T10:18:40.387Z,65.46
2022-10-03T10:21:32.647Z,65.35
2022-10-03T10:24:17.434Z,64.82
2022-10-03T10:27:08.709Z,64.36
2022-10-03T10:29:56.507Z,63.51
2022-10-03T10:32:49.009Z,63.08
2022-10-03T10:35:37.254Z,62.60
2022-10-03T10:38:31.900Z,61.88
2022-10-03T10:41:17.151Z,62.06
2022-10-03T10:44:19.894Z,62.11
2022-10-03T10:47:14.769Z,62.29
2022-10-03T10:50:12.219Z,61.46
2022-10-03T10:53:09.792Z,60.57
2022-10-03T10:55:51.470Z,59.57
2022-10-03T10:58:42.473Z,59.66
2022-10-03T11:01:30.529Z,58.87
2022-10-03T11:04:32.986Z,58.23
2022-10-03T11:07:25.376Z,57.28
2022-10-03T11:10:00.906Z,57.04
2022-10-03T11:12:46.664Z,54.62
2022-10-03T11:15:25.160Z,55.58
2022-10-03T11:18:07.215Z,55.07
2022-10-03T11:20:49.130Z,55.15
2022-10-03T11:23:34.175Z,55.05
2022-10-03T11:26:34.800Z,54.65
2022-10-03T11:29:40.950Z,55.40
2022-10-03T11:32:48.686Z,55.97
2022-10-03T11:35:52.787Z,55.48
2022-10-03T11:38:34.090Z,55.20
2022-10-03T11:41:25.690Z,54.93
2022-10-03T11:44:15.221Z,54.57
2022-10-03T11:46:59.635Z,53.52
2022-10-03T11:49:50.990Z,53.44
2022-10-03T11:52:45.951Z,53.81
2022-10-03T11:55:29.769Z,53.78
2022-10-03T11:58:14.727Z,53.13
2022-10-03T12:00:45.856Z,52.98
2022-10-03T12:03:30.000Z,52.99
2022-10-03T12:06:19.244Z,52.53
2022-10-03T12:09:07.244Z,52.24
2022-10-03T12:11:43.779Z,51.87
2022-10-03T12:14:11.402Z,49.98
2022-10-03T12:16:58.095Z,50.96
2022-10-03T12:19:38.555Z,51.35
2022-10-03T12:22:36.755Z,51.37
2022-10-03T12:25:23.912Z,51.38
2022-10-03T12:28:02.219Z,51.21
2022-10-03T12:30:40.715Z,50.26
2022-10-03T12:33:19.590Z,49.83
2022-10-03T12:36:09.834Z,49.86
2022-10-03T12:38:42.673Z,49.08
2022-10-03T12:41:18.268Z,49.04
2022-10-03T12:43:50.832Z,48.99
2022-10-03T12:46:32.126Z,49.03
2022-10-03T12:49:20.653Z,48.72
2022-10-03T12:51:56.517Z,47.67
2022-10-03T12:55:07.461Z,48.87
2022-10-03T12:57:42.534Z,47.90
2022-10-03T13:00:46.056Z,48.43
2022-10-03T13:03:34.582Z,48.55
2022-10-03T13:06:12.594Z,47.64
2022-10-03T13:09:06.842Z,47.69
2022-10-03T13:11:55.043Z,47.90
2022-10-03T13:14:55.218Z,47.06
2022-10-03T13:17:52.663Z,47.08
2022-10-03T13:20:29.897Z,46.77
2022-10-03T13:23:20.085Z,46.77
2022-10-03T13:26:15.898Z,46.92
2022-10-03T13:28:59.419Z,46.46
2022-10-03T13:31:32.973Z,46.84
2022-10-03T13:34:15.793Z,46.67
2022-10-03T13:37:05.199Z,47.19
2022-10-03T13:39:44.428Z,47.08
2022-10-03T13:42:33.535Z,47.38
2022-10-03T13:45:12.992Z,47.22
2022-10-03T13:47:42.294Z,46.59
2022-10-03T13:50:25.841Z,46.82
2022-10-03T13:53:09.319Z,47.11
2022-10-03T13:55:46.478Z,47.22
2022-10-03T13:58:25.055Z,46.83
2022-10-03T14:01:01.248Z,46.85
2022-10-03T14:03:35.722Z,47.56
2022-10-03T14:06:14.212Z,47.64
2022-10-03T14:09:07.948Z,47.80
2022-10-03T14:11:47.599Z,47.97
2022-10-03T14:14:47.927Z,47.88
2022-10-03T14:17:45.104Z,47.71
2022-10-03T14:20:20.186Z,48.26
2022-10-03T14:23:00.811Z,48.30
2022-10-03T14:26:00.233Z,47.85
2022-10-03T14:28:49.812Z,47.81
2022-10-03T14:31:31.743Z,47.95
2022-10-03T14:34:23.405Z,47.52
2022-10-03T14:36:53.823Z,47.80
2022-10-03T14:39:46.067Z,47.19
2022-10-03T14:42:27.319Z,46.98
2022-10-03T14:44:58.538Z,47.62
2022-10-03T14:47:26.231Z,47.31
2022-10-03T14:49:59.986Z,48.58
2022-10-03T14:52:41.401Z,48.47
2022-10-03T14:55:17.615Z,48.38
2022-10-03T14:58:10.341Z,48.12
2022-10-03T15:00:47.623Z,47.97
2022-10-03T15:03:17.592Z,48.47
2022-10-03T15:05:56.329Z,48.32
2022-10-03T15:08:26.639Z,47.88
2022-10-03T15:10:55.742Z,47.69
2022-10-03T15:13:26.437Z,47.56
2022-10-03T15:15:55.339Z,48.19
2022-10-03T15:18:24.426Z,47.79
2022-10-03T15:20:55.053Z,47.91
2022-10-03T15:23:27.709Z,47.25
2022-10-03T15:25:56.402Z,47.60
2022-10-03T15:28:29.345Z,47.92
2022-10-03T15:30:57.881Z,47.69
2022-10-03T15:33:32.279Z,48.17
2022-10-03T15:36:18.460Z,48.15
2022-10-03T15:38:52.171Z,48.21
2022-10-03T15:41:35.948Z,48.52
2022-10-03T15:44:40.133Z,49.02
2022-10-03T15:47:13.758Z,48.53
2022-10-03T15:49:50.167Z,48.82
2022-10-03T15:52:21.201Z,48.57
2022-10-03T15:55:06.720Z,48.32
2022-10-03T15:57:44.260Z,49.01
2022-10-03T16:00:26.501Z,48.94
2022-10-03T16:03:14.142Z,49.19
2022-10-03T16:05:56.190Z,49.38
2022-10-03T16:08:27.089Z,49.43
2022-10-03T16:11:09.127Z,49.67
2022-10-03T16:13:44.449Z,49.45
2022-10-03T16:16:19.342Z,49.97
2022-10-03T16:19:05.771Z,50.14
2022-10-03T16:21:31.996Z,51.02
2022-10-03T16:24:01.758Z,50.60
2022-10-03T16:26:34.667Z,50.85
2022-10-03T16:29:11.612Z,50.93
2022-10-03T16:31:50.478Z,51.16
2022-10-03T16:34:20.281Z,51.18
2022-10-03T16:36:50.050Z,51.71
2022-10-03T16:39:34.311Z,51.90
2022-10-03T16:42:11.891Z,52.00
2022-10-03T16:44:50.815Z,51.94
2022-10-03T16:47:28.718Z,52.17
2022-10-03T16:50:15.963Z,52.31
2022-10-03T16:52:46.494Z,52.82
2022-10-03T16:55:20.845Z,53.10
2022-10-03T16:58:02.408Z,53.13
2022-10-03T17:00:38.256Z,53.48
2022-10-03T17:03:15.987Z,53.50
2022-10-03T17:05:47.167Z,54.11
2022-10-03T17:08:40.053Z,54.46
2022-10-03T17:11:06.464Z,54.58
2022-10-03T17:13:46.939Z,54.89
2022-10-03T17:16:25.643Z,55.00
2022-10-03T17:19:11.422Z,55.27
2022-10-03T17:21:42.178Z,55.60
2022-10-03T17:24:16.154Z,55.67
2022-10-03T17:26:46.062Z,55.66
2022-10-03T17:29:23.991Z,55.94
2022-10-03T17:32:10.006Z,55.94
2022-10-03T17:34:52.984Z,56.06
2022-10-03T17:37:28.048Z,56.20
2022-10-03T17:40:31.996Z,56.19
2022-10-03T17:43:06.194Z,56.30
2022-10-03T17:45:38.023Z,56.62
2022-10-03T17:48:18.614Z,57.05
2022-10-03T17:51:02.496Z,56.94
2022-10-03T17:53:36.472Z,57.14
2022-10-03T17:56:13.158Z,57.22
2022-10-03T17:58:45.383Z,57.46
2022-10-03T18:01:19.391Z,57.81
2022-10-03T18:03:53.236Z,57.88
2022-10-03T18:06:28.807Z,58.06
2022-10-03T18:08:56.612Z,57.94
2022-10-03T18:11:28.566Z,58.21
2022-10-03T18:14:22.331Z,58.45
2022-10-03T18:16:59.787Z,58.23
2022-10-03T18:19:55.586Z,58.67
2022-10-03T18:22:40.507Z,58.71
2022-10-03T18:25:54.254Z,58.87
2022-10-03T18:28:56.272Z,58.85
2022-10-03T18:31:25.689Z,58.78
2022-10-03T18:33:57.929Z,59.03
2022-10-03T18:36:29.291Z,59.22
2022-10-03T18:39:01.455Z,59.37
2022-10-03T18:41:28.308Z,59.73
2022-10-03T18:44:00.164Z,59.62
2022-10-03T18:46:39.873Z,59.51
2022-10-03T18:49:35.428Z,59.92
2022-10-03T18:52:13.301Z,59.92
2022-10-03T18:55:00.301Z,59.69
2022-10-03T18:57:35.108Z,59.73
2022-10-03T19:00:18.324Z,60.14
2022-10-03T19:02:57.635Z,60.15
2022-10-03T19:05:30.981Z,60.30
2022-10-03T19:08:22.401Z,60.53
2022-10-03T19:10:55.271Z,60.29
2022-10-03T19:13:45.471Z,60.72
2022-10-03T19:16:32.243Z,60.75
2022-10-03T19:19:28.843Z,60.79
2022-10-03T19:21:56.730Z,61.19
2022-10-03T19:24:53.311Z,60.94
2022-10-03T19:27:18.779Z,61.00
2022-10-03T19:29:52.917Z,61.39
2022-10-03T19:32:42.512Z,61.32
2022-10-03T19:35:13.615Z,61.01
2022-10-03T19:37:45.972Z,61.55
2022-10-03T19:40:31.514Z,61.18
2022-10-03T19:43:31.892Z,61.37
2022-10-03T19:46:10.974Z,61.46
2022-10-03T19:48:46.259Z,61.61
2022-10-03T19:51:25.751Z,61.81
2022-10-03T19:53:54.525Z,62.21
2022-10-03T19:56:23.539Z,62.08
2022-10-03T19:59:04.808Z,61.98
2022-10-03T20:01:49.210Z,62.06
2022-10-03T20:04:31.880Z,62.73
2022-10-03T20:06:59.323Z,62.64
2022-10-03T20:09:27.750Z,62.66
2022-10-03T20:12:02.808Z,62.42
2022-10-03T20:14:35.467Z,62.51
2022-10-03T20:17:12.804Z,62.68
2022-10-03T20:19:39.072Z,62.63
2022-10-03T20:22:05.909Z,62.79
2022-10-03T20:24:39.262Z,62.55
2022-10-03T20:27:05.692Z,62.72
2022-10-03T20:29:38.663Z,62.76
2022-10-03T20:32:06.321Z,62.72
2022-10-03T20:34:36.322Z,62.56
2022-10-03T20:37:36.613Z,62.59
2022-10-03T20:40:17.543Z,62.62
2022-10-03T20:42:47.590Z,63.24
2022-10-03T20:45:28.150Z,62.98
2022-10-03T20:47:58.839Z,63.12
2022-10-03T20:50:37.028Z,63.19
2022-10-03T20:53:18.553Z,63.08
2022-10-03T20:55:50.923Z,62.97
2022-10-03T20:58:50.996Z,62.97
2022-10-03T21:01:23.246Z,62.85
2022-10-03T21:04:06.604Z,62.91
2022-10-03T21:06:46.961Z,62.93
2022-10-03T21:09:20.497Z,63.02
2022-10-03T21:11:54.454Z,63.23
2022-10-03T21:14:26.773Z,63.16
2022-10-03T21:16:55.264Z,63.25
2022-10-03T21:19:33.686Z,63.05
2022-10-03T21:22:03.854Z,62.96
2022-10-03T21:24:34.803Z,63.23
2022-10-03T21:27:28.791Z,63.18
2022-10-03T21:30:01.302Z,63.19
2022-10-03T21:32:56.242Z,63.14
2022-10-03T21:35:29.982Z,63.31
2022-10-03T21:38:18.038Z,63.30
2022-10-03T21:41:09.388Z,63.26
2022-10-03T21:43:58.311Z,63.52
2022-10-03T21:46:55.436Z,63.67
2022-10-03T21:49:35.585Z,63.83
2022-10-03T21:52:17.260Z,63.98
2022-10-03T21:55:10.186Z,63.84
2022-10-03T21:58:02.478Z,63.73
2022-10-03T22:00:47.572Z,63.75
2022-10-03T22:03:30.201Z,64.23
2022-10-03T22:06:21.406Z,64.23
2022-10-03T22:08:49.299Z,64.21
2022-10-03T22:11:27.752Z,64.17
2022-10-03T22:14:36.730Z,64.33
2022-10-03T22:17:07.958Z,64.36
2022-10-03T22:19:43.244Z,64.41
2022-10-03T22:22:28.403Z,64.39
2022-10-03T22:25:20.633Z,64.30
2022-10-03T22:28:06.820Z,64.42
2022-10-03T22:30:41.910Z,64.34
2022-10-03T22:33:14.882Z,64.47
2022-10-03T22:35:48.246Z,64.55
2022-10-03T22:38:16.974Z,64.66
2022-10-03T22:40:46.634Z,64.69
2022-10-03T22:43:15.309Z,64.76
2022-10-03T22:45:44.891Z,65.06
2022-10-03T22:48:17.484Z,64.75
2022-10-03T22:50:44.550Z,64.80
2022-10-03T22:53:15.233Z,64.84
2022-10-03T22:55:49.549Z,64.62
2022-10-03T22:58:16.692Z,64.73
2022-10-03T23:00:45.936Z,64.46
2022-10-03T23:03:34.059Z,64.60
2022-10-03T23:07:11.463Z,64.39
2022-10-03T23:09:43.913Z,64.72
2022-10-03T23:12:11.586Z,64.76
2022-10-03T23:14:45.242Z,64.68
2022-10-03T23:17:36.561Z,64.82
2022-10-03T23:20:26.717Z,64.64
2022-10-03T23:22:56.809Z,64.73
2022-10-03T23:25:29.445Z,64.61
2022-10-03T23:28:21.275Z,64.70
2022-10-03T23:30:53.857Z,64.85
2022-10-03T23:33:32.512Z,64.81
2022-10-03T23:36:16.528Z,64.70
2022-10-03T23:38:42.850Z,65.10
2022-10-03T23:41:13.874Z,64.70
2022-10-03T23:43:48.795Z,64.80
2022-10-03T23:46:19.401Z,64.86
2022-10-03T23:48:53.255Z,64.76
2022-10-03T23:51:23.567Z,64.98
2022-10-03T23:53:53.466Z,65.05
2022-10-03T23:56:28.882Z,64.95
2022-10-03T23:59:08.026Z,64.82
